Overview Statistics Trail Chart Weather Telemetry Raw packets
 

This is the latest recevied weather packets stored in our database for station/object SV3AQT-13. If no packets are shown the sender has not sent any weather packets the latest 10 day(s).

<< 25 26 27 28 29 30 31 >>
Time Temp. Humidity Pressure Rain* Wind** Luminosity Snow
1788478410 22.78° C 76% 1015.9 hPa 0 mm 0 m/s - -
1788477809 23.33° C 77% 1016.2 hPa 0 mm 0 m/s - -
1788477210 23.89° C 77% 1016.2 hPa 0 mm 0 m/s - -
1788476609 23.33° C 81% 1016.2 hPa 0 mm 0 m/s - -
1788476010 22.22° C 78% 1016.5 hPa 0 mm 0 m/s - -
1788475412 22.78° C 78% 1016.2 hPa 0 mm 0 m/s - -
1788474810 23.33° C 76% 1016.5 hPa 0 mm 0 m/s - -
1788474209 23.89° C 74% 1016.2 hPa 0 mm 0 m/s - -
1788473610 25° C 71% 1016.2 hPa 0 mm 0 m/s - -
1788473010 25.56° C 70% 1016.2 hPa 0 mm 0 m/s - -
1788472410 26.11° C 67% 1016.2 hPa 0 mm 0 m/s - -
1788471814 25.56° C 71% 1016.2 hPa 0 mm 0 m/s - -
1788471209 24.44° C 72% 1016.2 hPa 0 mm 0 m/s - -
1788470611 23.33° C 77% 1016.2 hPa 0 mm 0 m/s - -
1788470009 23.33° C 81% 1016.2 hPa 0 mm 0 m/s - -
1788469409 22.78° C 81% 1016.2 hPa 0 mm 0 m/s - -
1788468809 23.33° C 78% 1016.2 hPa 0 mm 0 m/s - -
1788468209 23.33° C 77% 1015.9 hPa 0 mm 0 m/s - -
1788467610 23.33° C 78% 1016.2 hPa 0 mm 0 m/s - -
1788467012 23.89° C 76% 1016.2 hPa 0 mm 0 m/s - -
1788466981 23.89° C 76% 1016.2 hPa 0 mm 0 m/s - -
1788466962 23.89° C 76% 1016.2 hPa 0 mm 0 m/s - -
1788466600 24.44° C 74% 1016.2 hPa 0 mm 0 m/s - -
1788466000 23.89° C 75% 1016.2 hPa 0 mm 0 m/s - -
1788465399 23.89° C 75% 1016.2 hPa 0 mm 0 m/s - -

* Rain latest hour (hover to see other rain measurements)
** Current wind speed in m/s (hover to see current wind gust speed)